createdAt,value
2018-04-23T00:01:48.638Z,95195.50
2018-04-23T00:04:15.127Z,95192.36
2018-04-23T00:06:41.517Z,95187.13
2018-04-23T00:09:08.051Z,95189.69
2018-04-23T00:11:34.579Z,95187.48
2018-04-23T00:14:01.146Z,95187.48
2018-04-23T00:16:27.689Z,95188.95
2018-04-23T00:18:54.228Z,95197.05
2018-04-23T00:21:20.706Z,95196.39
2018-04-23T00:23:47.179Z,95197.70
2018-04-23T00:26:13.624Z,95192.89
2018-04-23T00:28:40.211Z,95188.89
2018-04-23T00:31:06.769Z,95191.22
2018-04-23T00:33:33.168Z,95192.84
2018-04-23T00:35:59.680Z,95183.13
2018-04-23T00:38:26.028Z,95184.23
2018-04-23T00:40:52.616Z,95177.84
2018-04-23T00:43:19.097Z,95183.06
2018-04-23T00:45:45.518Z,95186.15
2018-04-23T00:48:11.908Z,95181.17
2018-04-23T00:50:38.397Z,95186.18
2018-04-23T00:53:17.068Z,95188.27
2018-04-23T00:55:43.478Z,95187.28
2018-04-23T00:58:09.936Z,95186.39
2018-04-23T01:00:36.344Z,95189.89
2018-04-23T01:03:02.799Z,95187.66
2018-04-23T01:05:29.323Z,95182.95
2018-04-23T01:07:55.864Z,95181.25
2018-04-23T01:10:22.313Z,95183.00
2018-04-23T01:12:48.854Z,95184.05
2018-04-23T01:15:15.427Z,95188.27
2018-04-23T01:17:41.889Z,95181.78
2018-04-23T01:20:08.567Z,95184.50
2018-04-23T01:22:35.150Z,95188.39
2018-04-23T01:25:01.680Z,95186.17
2018-04-23T01:27:28.180Z,95188.70
2018-04-23T01:29:54.645Z,95190.97
2018-04-23T01:32:21.067Z,95186.03
2018-04-23T01:34:47.497Z,95194.13
2018-04-23T01:37:14.081Z,95189.81
2018-04-23T01:39:40.505Z,95196.52
2018-04-23T01:42:07.167Z,95186.63
2018-04-23T01:44:33.620Z,95191.96
2018-04-23T01:47:00.040Z,95189.80
2018-04-23T01:49:26.636Z,95186.68
2018-04-23T01:51:53.161Z,95182.87
2018-04-23T01:54:19.551Z,95187.56
2018-04-23T01:56:46.020Z,95186.94
2018-04-23T01:59:12.488Z,95192.80
2018-04-23T02:01:38.923Z,95202.03
2018-04-23T02:04:05.427Z,95197.00
2018-04-23T02:06:31.853Z,95202.45
2018-04-23T02:08:58.320Z,95206.17
2018-04-23T02:11:24.768Z,95207.39
2018-04-23T02:13:51.316Z,95202.82
2018-04-23T02:16:17.939Z,95209.11
2018-04-23T02:18:44.509Z,95207.42
2018-04-23T02:21:11.008Z,95211.23
2018-04-23T02:23:37.461Z,95206.86
2018-04-23T02:26:04.059Z,95208.64
2018-04-23T02:28:30.474Z,95207.48
2018-04-23T02:30:56.949Z,95206.33
2018-04-23T02:33:23.451Z,95208.08
2018-04-23T02:35:49.956Z,95209.39
2018-04-23T02:38:16.479Z,95211.89
2018-04-23T02:40:43.057Z,95206.16
2018-04-23T02:43:09.476Z,95202.24
2018-04-23T02:45:35.928Z,95204.59
2018-04-23T02:48:02.501Z,95213.44
2018-04-23T02:50:29.160Z,95212.75
2018-04-23T02:52:55.723Z,95215.88
2018-04-23T02:55:22.194Z,95210.20
2018-04-23T02:57:48.578Z,95211.28
2018-04-23T03:00:15.053Z,95205.47
2018-04-23T03:02:41.624Z,95207.96
2018-04-23T03:05:08.029Z,95202.94
2018-04-23T03:07:34.492Z,95200.55
2018-04-23T03:10:00.969Z,95204.58
2018-04-23T03:12:27.409Z,95204.13
2018-04-23T03:14:53.968Z,95208.50
2018-04-23T03:17:20.446Z,95211.62
2018-04-23T03:19:46.995Z,95214.49
2018-04-23T03:22:13.526Z,95216.40
2018-04-23T03:24:40.056Z,95216.38
2018-04-23T03:27:06.579Z,95213.36
2018-04-23T03:29:33.118Z,95204.03
2018-04-23T03:31:59.624Z,95215.61
2018-04-23T03:34:26.058Z,95211.65
2018-04-23T03:36:52.663Z,95219.20
2018-04-23T03:39:19.261Z,95220.30
2018-04-23T03:41:45.682Z,95228.22
2018-04-23T03:44:12.213Z,95227.84
2018-04-23T03:46:38.753Z,95224.14
2018-04-23T03:49:05.183Z,95225.70
2018-04-23T03:51:31.660Z,95225.89
2018-04-23T03:53:58.209Z,95222.96
2018-04-23T03:56:24.748Z,95228.58
2018-04-23T03:58:51.324Z,95237.59
2018-04-23T04:01:17.817Z,95234.74
2018-04-23T04:03:44.399Z,95233.38
2018-04-23T04:06:10.882Z,95234.84
2018-04-23T04:08:37.300Z,95235.95
2018-04-23T04:11:03.796Z,95237.19
2018-04-23T04:13:42.281Z,95236.10
2018-04-23T04:16:20.807Z,95239.70
2018-04-23T04:18:47.260Z,95238.50
2018-04-23T04:21:13.774Z,95237.37
2018-04-23T04:23:40.227Z,95239.05
2018-04-23T04:26:06.740Z,95238.34
2018-04-23T04:28:33.175Z,95243.98
2018-04-23T04:30:59.639Z,95242.98
2018-04-23T04:33:26.107Z,95251.77
2018-04-23T04:35:52.543Z,95249.62
2018-04-23T04:38:19.067Z,95252.14
2018-04-23T04:40:45.639Z,95258.34
2018-04-23T04:43:12.113Z,95260.34
2018-04-23T04:45:38.661Z,95262.45
2018-04-23T04:48:05.124Z,95256.36
2018-04-23T04:50:31.532Z,95254.09
2018-04-23T04:52:58.250Z,95258.41
2018-04-23T04:55:24.824Z,95260.95
2018-04-23T04:57:51.317Z,95261.96
2018-04-23T05:00:17.773Z,95255.55
2018-04-23T05:02:44.255Z,95251.65
2018-04-23T05:05:10.841Z,95252.87
2018-04-23T05:07:37.324Z,95258.00
2018-04-23T05:10:03.890Z,95254.91
2018-04-23T05:12:30.324Z,95260.44
2018-04-23T05:14:56.847Z,95260.56
2018-04-23T05:17:23.268Z,95262.66
2018-04-23T05:19:49.819Z,95262.94
2018-04-23T05:22:16.251Z,95266.66
2018-04-23T05:24:42.745Z,95268.84
2018-04-23T05:27:09.228Z,95266.73
2018-04-23T05:29:35.804Z,95266.77
2018-04-23T05:32:02.326Z,95270.84
2018-04-23T05:34:28.728Z,95270.76
2018-04-23T05:36:55.242Z,95276.17
2018-04-23T05:39:21.807Z,95270.21
2018-04-23T05:41:48.359Z,95271.55
2018-04-23T05:44:14.768Z,95273.95
2018-04-23T05:46:41.340Z,95269.91
2018-04-23T05:49:07.828Z,95268.99
2018-04-23T05:51:34.305Z,95266.61
2018-04-23T05:54:00.905Z,95272.91
2018-04-23T05:56:27.483Z,95274.31
2018-04-23T05:58:54.004Z,95274.83
2018-04-23T06:01:20.523Z,95272.64
2018-04-23T06:03:46.996Z,95268.28
2018-04-23T06:06:13.666Z,95267.00
2018-04-23T06:08:40.317Z,95259.13
2018-04-23T06:11:06.776Z,95264.25
2018-04-23T06:13:33.280Z,95264.84
2018-04-23T06:15:59.766Z,95255.91
2018-04-23T06:18:26.216Z,95256.02
2018-04-23T06:20:52.716Z,95252.64
2018-04-23T06:23:19.197Z,95254.56
2018-04-23T06:25:45.675Z,95254.56
2018-04-23T06:28:12.266Z,95250.39
2018-04-23T06:30:38.794Z,95248.92
2018-04-23T06:33:05.263Z,95248.27
2018-04-23T06:35:31.640Z,95244.73
2018-04-23T06:37:58.115Z,95253.18
2018-04-23T06:40:24.632Z,95250.13
2018-04-23T06:42:51.102Z,95245.26
2018-04-23T06:45:17.568Z,95244.68
2018-04-23T06:47:44.161Z,95251.25
2018-04-23T06:50:10.633Z,95253.84
2018-04-23T06:52:36.973Z,95249.59
2018-04-23T06:55:03.540Z,95247.47
2018-04-23T06:57:30.055Z,95246.69
2018-04-23T06:59:56.586Z,95248.19
2018-04-23T07:02:23.089Z,95248.67
2018-04-23T07:04:49.593Z,95250.34
2018-04-23T07:07:16.174Z,95247.37
2018-04-23T07:09:42.785Z,95251.34
2018-04-23T07:12:09.357Z,95245.70
2018-04-23T07:14:35.850Z,95250.84
2018-04-23T07:17:02.461Z,95256.09
2018-04-23T07:19:35.788Z,95255.30
2018-04-23T07:22:02.301Z,95254.80
2018-04-23T07:24:28.757Z,95251.36
2018-04-23T07:26:55.240Z,95256.35
2018-04-23T07:29:21.643Z,95255.20
2018-04-23T07:31:48.186Z,95257.78
2018-04-23T07:34:14.720Z,95265.61
2018-04-23T07:36:41.270Z,95264.10
2018-04-23T07:39:07.788Z,95263.58
2018-04-23T07:41:34.215Z,95260.23
2018-04-23T07:44:00.724Z,95263.78
2018-04-23T07:46:27.133Z,95262.58
2018-04-23T07:48:53.627Z,95268.16
2018-04-23T07:51:20.043Z,95270.63
2018-04-23T07:53:46.597Z,95270.39
2018-04-23T07:56:13.200Z,95265.64
2018-04-23T07:58:39.689Z,95274.37
2018-04-23T08:01:06.187Z,95272.86
2018-04-23T08:03:32.655Z,95272.44
2018-04-23T08:05:59.213Z,95269.77
2018-04-23T08:08:25.718Z,95267.97
2018-04-23T08:10:52.179Z,95271.55
2018-04-23T08:13:18.722Z,95272.15
2018-04-23T08:15:45.291Z,95274.28
2018-04-23T08:18:11.888Z,95274.16
2018-04-23T08:20:38.396Z,95269.38
2018-04-23T08:23:04.833Z,95263.52
2018-04-23T08:25:31.299Z,95263.34
2018-04-23T08:27:57.905Z,95259.16
2018-04-23T08:30:24.513Z,95258.59
2018-04-23T08:32:51.230Z,95254.45
2018-04-23T08:35:17.736Z,95255.02
2018-04-23T08:37:44.230Z,95255.25
2018-04-23T08:40:10.720Z,95255.67
2018-04-23T08:42:37.209Z,95257.80
2018-04-23T08:45:03.691Z,95257.44
2018-04-23T08:47:30.332Z,95257.98
2018-04-23T08:49:56.828Z,95251.38
2018-04-23T08:52:23.372Z,95243.42
2018-04-23T08:54:49.861Z,95244.13
2018-04-23T08:57:16.333Z,95235.52
2018-04-23T08:59:42.848Z,95231.31
2018-04-23T09:02:09.366Z,95236.33
2018-04-23T09:04:35.856Z,95234.32
2018-04-23T09:07:02.377Z,95238.08
2018-04-23T09:09:28.812Z,95240.65
2018-04-23T09:11:55.435Z,95224.56
2018-04-23T09:14:22.150Z,95222.66
2018-04-23T09:16:48.557Z,95218.14
2018-04-23T09:19:15.070Z,95214.53
2018-04-23T09:21:41.648Z,95215.31
2018-04-23T09:24:08.194Z,95213.77
2018-04-23T09:26:34.709Z,95212.73
2018-04-23T09:29:01.189Z,95216.28
2018-04-23T09:31:27.658Z,95212.84
2018-04-23T09:33:54.085Z,95216.05
2018-04-23T09:36:20.597Z,95212.81
2018-04-23T09:38:47.068Z,95209.54
2018-04-23T09:41:13.532Z,95210.35
2018-04-23T09:43:39.989Z,95210.05
2018-04-23T09:46:06.402Z,95208.86
2018-04-23T09:48:32.979Z,95205.91
2018-04-23T09:50:59.455Z,95205.19
2018-04-23T09:53:25.895Z,95201.08
2018-04-23T09:55:52.364Z,95195.23
2018-04-23T09:58:18.873Z,95193.08
2018-04-23T10:00:45.359Z,95193.89
2018-04-23T10:03:11.986Z,95190.27
2018-04-23T10:05:38.402Z,95185.09
2018-04-23T10:08:04.875Z,95182.84
2018-04-23T10:10:31.420Z,95182.89
2018-04-23T10:12:58.022Z,95182.05
2018-04-23T10:15:24.442Z,95179.00
2018-04-23T10:17:50.869Z,95168.84
2018-04-23T10:20:17.324Z,95164.17
2018-04-23T10:22:43.835Z,95164.65
2018-04-23T10:25:10.267Z,95164.66
2018-04-23T10:27:36.828Z,95171.88
2018-04-23T10:30:03.505Z,95166.70
2018-04-23T10:32:30.028Z,95165.49
2018-04-23T10:34:56.517Z,95159.89
2018-04-23T10:37:23.068Z,95164.46
2018-04-23T10:39:49.639Z,95152.40
2018-04-23T10:42:16.228Z,95155.28
2018-04-23T10:44:42.628Z,95151.13
2018-04-23T10:47:09.157Z,95143.02
2018-04-23T10:49:35.663Z,95144.31
2018-04-23T10:52:02.153Z,95151.68
2018-04-23T10:54:28.674Z,95143.71
2018-04-23T10:56:55.226Z,95142.73
2018-04-23T10:59:21.705Z,95139.72
2018-04-23T11:01:48.247Z,95143.08
2018-04-23T11:04:14.752Z,95137.30
2018-04-23T11:06:41.273Z,95128.67
2018-04-23T11:09:07.886Z,95127.30
2018-04-23T11:11:34.474Z,95127.46
2018-04-23T11:14:01.524Z,95129.39
2018-04-23T11:16:28.117Z,95124.58
2018-04-23T11:18:54.557Z,95124.17
2018-04-23T11:21:21.078Z,95117.91
2018-04-23T11:23:47.520Z,95117.63
2018-04-23T11:26:14.078Z,95115.41
2018-04-23T11:28:40.552Z,95119.88
2018-04-23T11:31:07.149Z,95123.41
2018-04-23T11:33:33.676Z,95121.50
2018-04-23T11:36:00.272Z,95117.03
2018-04-23T11:38:26.684Z,95118.36
2018-04-23T11:40:53.104Z,95120.16
2018-04-23T11:52:08.698Z,95114.45
2018-04-23T11:54:35.273Z,95109.28
2018-04-23T11:57:01.759Z,95102.45
2018-04-23T11:59:28.312Z,95099.42
2018-04-23T12:01:54.820Z,95101.14
2018-04-23T12:04:21.282Z,95091.11
2018-04-23T12:06:47.775Z,95089.53
2018-04-23T12:09:14.239Z,95087.02
2018-04-23T12:11:40.726Z,95085.95
2018-04-23T12:14:07.272Z,95082.02
2018-04-23T12:16:33.813Z,95082.26
2018-04-23T12:19:00.313Z,95089.42
2018-04-23T12:21:26.826Z,95082.97
2018-04-23T12:23:53.331Z,95082.63
2018-04-23T12:26:19.970Z,95073.72
2018-04-23T12:37:06.934Z,95062.02
2018-04-23T12:39:33.475Z,95058.02
2018-04-23T12:41:59.911Z,95056.52
2018-04-23T12:44:26.489Z,95055.50
2018-04-23T12:46:53.006Z,95050.34
2018-04-23T12:49:19.510Z,95047.17
2018-04-23T12:51:46.013Z,95048.33
2018-04-23T12:54:12.459Z,95042.90
2018-04-23T12:56:38.858Z,95045.25
2018-04-23T12:59:05.354Z,95040.69
2018-04-23T13:01:31.885Z,95043.39
2018-04-23T13:03:58.404Z,95040.60
2018-04-23T13:06:24.853Z,95041.40
2018-04-23T13:08:51.396Z,95032.52
2018-04-23T13:11:17.900Z,95030.01
2018-04-23T13:13:44.515Z,95025.75
2018-04-23T13:16:10.958Z,95034.63
2018-04-23T13:18:37.408Z,95029.63
2018-04-23T13:21:03.991Z,95022.31
2018-04-23T13:23:30.510Z,95022.97
2018-04-23T13:25:57.036Z,95027.00
2018-04-23T13:28:23.479Z,95018.91
2018-04-23T13:30:50.010Z,95022.39
2018-04-23T13:33:16.518Z,95017.34
2018-04-23T13:35:43.012Z,95016.06
2018-04-23T13:38:09.594Z,95009.92
2018-04-23T13:40:35.971Z,95013.34
2018-04-23T13:43:02.457Z,95011.89
2018-04-23T13:45:28.953Z,95010.17
2018-04-23T13:47:55.521Z,95008.32
2018-04-23T13:50:22.095Z,94998.12
2018-04-23T13:52:48.750Z,94997.52
2018-04-23T13:55:15.292Z,95005.30
2018-04-23T13:57:41.789Z,95003.30
2018-04-23T14:00:08.282Z,95005.22
2018-04-23T14:02:34.755Z,94993.01
2018-04-23T14:05:01.297Z,94997.69
2018-04-23T14:07:27.749Z,94997.82
2018-04-23T14:09:54.142Z,94993.31
2018-04-23T14:12:20.652Z,94989.44
2018-04-23T14:14:47.133Z,94989.30
2018-04-23T14:17:13.636Z,94994.92
2018-04-23T14:19:40.236Z,94994.80
2018-04-23T14:22:06.769Z,94984.20
2018-04-23T14:24:33.248Z,94987.06
2018-04-23T14:27:00.049Z,94994.57
2018-04-23T14:29:26.625Z,94990.14
2018-04-23T14:31:53.011Z,94981.40
2018-04-23T14:34:19.583Z,94987.65
2018-04-23T14:36:46.017Z,94986.61
2018-04-23T14:39:12.926Z,94983.54
2018-04-23T14:41:39.427Z,94984.02
2018-04-23T14:44:05.999Z,94980.14
2018-04-23T14:46:32.600Z,94978.70
2018-04-23T14:48:59.017Z,94980.47
2018-04-23T14:51:25.419Z,94984.46
2018-04-23T14:53:51.844Z,94980.25
2018-04-23T14:56:18.317Z,94976.98
2018-04-23T14:58:45.062Z,94983.05
2018-04-23T15:01:11.535Z,94982.58
2018-04-23T15:03:37.972Z,94979.98
2018-04-23T15:06:04.421Z,94979.51
2018-04-23T15:08:30.961Z,94985.33
2018-04-23T15:10:57.416Z,94986.07
2018-04-23T15:13:24.074Z,94986.52
2018-04-23T15:15:50.651Z,94983.94
2018-04-23T15:18:17.130Z,94985.20
2018-04-23T15:20:43.604Z,94982.00
2018-04-23T15:23:10.115Z,94980.23
2018-04-23T15:25:36.680Z,94981.00
2018-04-23T15:28:03.253Z,94978.86
2018-04-23T15:30:29.744Z,94981.93
2018-04-23T15:32:56.128Z,94976.52
2018-04-23T15:35:22.622Z,94976.39
2018-04-23T15:37:49.121Z,94977.35
2018-04-23T15:40:15.641Z,94972.34
2018-04-23T15:42:42.107Z,94980.84
2018-04-23T15:45:08.586Z,94983.46
2018-04-23T15:47:35.037Z,94985.34
2018-04-23T15:50:01.492Z,94983.84
2018-04-23T15:52:28.026Z,94984.25
2018-04-23T15:54:55.980Z,94992.87
2018-04-23T15:57:22.424Z,94994.58
2018-04-23T16:00:03.723Z,94998.11
2018-04-23T16:02:30.184Z,95000.05
2018-04-23T16:04:56.695Z,94998.25
2018-04-23T16:07:23.172Z,94998.36
2018-04-23T16:20:37.023Z,95018.89
2018-04-23T16:23:03.793Z,95012.88
2018-04-23T16:25:30.422Z,95010.25
2018-04-23T16:27:57.239Z,95020.11
2018-04-23T16:30:23.717Z,95015.27
2018-04-23T16:32:50.100Z,95018.58
2018-04-23T16:35:16.833Z,95020.68
2018-04-23T16:37:43.384Z,95018.11
2018-04-23T16:40:09.849Z,95022.73
2018-04-23T16:42:36.641Z,95023.57
2018-04-23T16:45:03.583Z,95035.06
2018-04-23T16:47:29.966Z,95026.80
2018-04-23T16:49:56.492Z,95033.42
2018-04-23T16:52:22.992Z,95028.91
2018-04-23T16:54:49.456Z,95037.00
2018-04-23T16:57:15.980Z,95041.86
2018-04-23T16:59:42.576Z,95045.34
2018-04-23T17:02:09.001Z,95051.76
2018-04-23T17:04:35.516Z,95047.14
2018-04-23T17:07:01.917Z,95053.80
2018-04-23T17:09:28.351Z,95055.86
2018-04-23T17:11:54.930Z,95053.81
2018-04-23T17:14:21.438Z,95061.28
2018-04-23T17:16:47.829Z,95063.39
2018-04-23T17:19:14.472Z,95062.30
2018-04-23T17:21:40.887Z,95069.29
2018-04-23T17:24:07.471Z,95068.84
2018-04-23T17:26:33.888Z,95073.29
2018-04-23T17:29:00.342Z,95077.45
2018-04-23T17:31:26.745Z,95083.77
2018-04-23T17:33:53.232Z,95087.53
2018-04-23T17:36:19.792Z,95084.30
2018-04-23T17:38:46.197Z,95088.22
2018-04-23T17:41:12.681Z,95094.02
2018-04-23T17:43:39.180Z,95094.87
2018-04-23T17:46:05.607Z,95097.78
2018-04-23T17:48:32.035Z,95100.80
2018-04-23T17:50:58.637Z,95106.84
2018-04-23T17:53:25.088Z,95107.56
2018-04-23T17:55:51.432Z,95109.86
2018-04-23T17:58:17.838Z,95101.80
2018-04-23T18:00:44.427Z,95109.73
2018-04-23T18:03:10.744Z,95109.56
2018-04-23T18:05:37.220Z,95110.08
2018-04-23T18:08:03.753Z,95113.83
2018-04-23T18:13:17.931Z,95117.52
2018-04-23T18:15:44.464Z,95123.33
2018-04-23T18:18:10.997Z,95121.93
2018-04-23T18:20:37.379Z,95123.48
2018-04-23T18:23:03.808Z,95126.52
2018-04-23T18:25:30.357Z,95132.91
2018-04-23T18:27:56.739Z,95131.05
2018-04-23T18:30:23.146Z,95132.41
2018-04-23T18:32:49.618Z,95133.19
2018-04-23T18:35:16.024Z,95138.42
2018-04-23T18:37:42.595Z,95135.91
2018-04-23T18:40:09.132Z,95139.09
2018-04-23T18:42:35.558Z,95141.66
2018-04-23T18:45:02.244Z,95139.48
2018-04-23T18:47:28.749Z,95152.39
2018-04-23T18:49:55.222Z,95143.83
2018-04-23T18:52:21.721Z,95146.22
2018-04-23T18:54:48.137Z,95149.14
2018-04-23T18:57:14.570Z,95156.84
2018-04-23T18:59:40.992Z,95154.19
2018-04-23T19:02:07.433Z,95150.86
2018-04-23T19:04:33.923Z,95159.45
2018-04-23T19:07:00.388Z,95156.35
2018-04-23T19:09:26.868Z,95158.27
2018-04-23T19:12:00.369Z,95156.82
2018-04-23T19:14:27.732Z,95162.02
2018-04-23T19:16:54.213Z,95160.67
2018-04-23T19:19:20.734Z,95163.67
2018-04-23T19:21:47.249Z,95166.83
2018-04-23T19:24:13.671Z,95161.55
2018-04-23T19:26:40.070Z,95172.09
2018-04-23T19:29:06.698Z,95173.70
2018-04-23T19:31:33.125Z,95172.82
2018-04-23T19:33:59.488Z,95167.09
2018-04-23T19:36:26.071Z,95170.00
2018-04-23T19:38:52.584Z,95169.42
2018-04-23T19:41:19.109Z,95169.36
2018-04-23T19:43:45.670Z,95168.88
2018-04-23T19:46:12.139Z,95175.11
2018-04-23T19:48:38.759Z,95175.73
2018-04-23T19:51:05.268Z,95176.25
2018-04-23T19:53:31.701Z,95176.28
2018-04-23T19:55:58.179Z,95175.22
2018-04-23T19:58:24.611Z,95181.43
2018-04-23T20:00:51.036Z,95177.37
2018-04-23T20:03:17.543Z,95184.22
2018-04-23T20:05:43.972Z,95182.30
2018-04-23T20:08:10.553Z,95185.65
2018-04-23T20:10:36.894Z,95180.27
2018-04-23T20:13:03.352Z,95190.24
2018-04-23T20:15:29.876Z,95186.78
2018-04-23T20:17:56.286Z,95189.97
2018-04-23T20:20:22.684Z,95187.22
2018-04-23T20:22:49.121Z,95177.45
2018-04-23T20:25:15.572Z,95189.66
2018-04-23T20:27:42.049Z,95189.36
2018-04-23T20:30:08.429Z,95190.88
2018-04-23T20:32:34.843Z,95191.80
2018-04-23T20:35:01.321Z,95190.30
2018-04-23T20:37:27.711Z,95188.34
2018-04-23T20:39:54.278Z,95189.58
2018-04-23T20:42:20.633Z,95191.11
2018-04-23T20:44:47.007Z,95196.94
2018-04-23T20:47:13.434Z,95199.87
2018-04-23T20:49:39.949Z,95197.63
2018-04-23T20:52:06.351Z,95199.89
2018-04-23T20:54:32.680Z,95198.36
2018-04-23T20:56:59.213Z,95190.91
2018-04-23T20:59:25.874Z,95196.52
2018-04-23T21:01:52.307Z,95198.66
2018-04-23T21:04:18.833Z,95200.50
2018-04-23T21:06:45.328Z,95201.31
2018-04-23T21:09:11.858Z,95201.93
2018-04-23T21:11:38.379Z,95201.20
2018-04-23T21:14:04.852Z,95207.91
2018-04-23T21:16:31.345Z,95205.59
2018-04-23T21:18:57.776Z,95204.36
2018-04-23T21:21:24.127Z,95214.02
2018-04-23T21:23:50.681Z,95217.59
2018-04-23T21:26:17.499Z,95214.84
2018-04-23T21:28:43.916Z,95220.12
2018-04-23T21:31:10.358Z,95217.92
2018-04-23T21:33:36.746Z,95215.80
2018-04-23T21:36:03.205Z,95213.73
2018-04-23T21:38:29.601Z,95211.92
2018-04-23T21:40:55.919Z,95217.61
2018-04-23T21:43:22.281Z,95220.44
2018-04-23T21:45:48.813Z,95219.42
2018-04-23T21:48:15.276Z,95225.89
2018-04-23T21:50:41.581Z,95226.18
2018-04-23T21:53:08.068Z,95231.25
2018-04-23T21:55:34.464Z,95222.62
2018-04-23T21:58:00.840Z,95224.41
2018-04-23T22:00:27.222Z,95225.31
2018-04-23T22:02:53.723Z,95225.91
2018-04-23T22:05:20.465Z,95231.80
2018-04-23T22:07:46.785Z,95229.26
2018-04-23T22:10:13.163Z,95231.06
2018-04-23T22:12:39.611Z,95228.50
2018-04-23T22:15:06.100Z,95233.69
2018-04-23T22:17:32.644Z,95226.22
2018-04-23T22:19:59.095Z,95230.87
2018-04-23T22:22:25.627Z,95232.29
2018-04-23T22:24:51.999Z,95233.52
2018-04-23T22:27:18.468Z,95227.94
2018-04-23T22:29:44.861Z,95232.77
2018-04-23T22:32:11.434Z,95234.47
2018-04-23T22:34:37.840Z,95230.23
2018-04-23T22:37:04.233Z,95228.61
2018-04-23T22:39:30.713Z,95225.27
2018-04-23T22:41:57.157Z,95228.78
2018-04-23T22:44:23.597Z,95228.48
2018-04-23T22:46:50.015Z,95231.90
2018-04-23T22:49:16.393Z,95232.78
2018-04-23T22:51:42.789Z,95238.13
2018-04-23T22:54:09.252Z,95229.49
2018-04-23T22:56:35.820Z,95229.45
2018-04-23T22:59:02.170Z,95223.95
2018-04-23T23:01:28.643Z,95229.08
2018-04-23T23:17:52.341Z,95214.19
2018-04-23T23:20:18.864Z,95218.67
2018-04-23T23:22:45.377Z,95217.24
2018-04-23T23:25:11.938Z,95223.17
2018-04-23T23:27:38.465Z,95224.32
2018-04-23T23:30:05.069Z,95224.08
2018-04-23T23:32:31.687Z,95228.27
2018-04-23T23:34:58.263Z,95224.88
2018-04-23T23:37:24.924Z,95226.02
2018-04-23T23:39:51.473Z,95228.95
2018-04-23T23:42:18.137Z,95224.20
2018-04-23T23:44:44.683Z,95226.18
2018-04-23T23:47:11.365Z,95224.36
2018-04-23T23:49:37.961Z,95222.53
2018-04-23T23:52:04.516Z,95227.55
2018-04-23T23:54:31.047Z,95225.42
2018-04-23T23:56:57.607Z,95216.59
2018-04-23T23:59:24.134Z,95217.51
